»·PEaware :: N523MB KLNK-KLBF

N523MB :: KLNK-KLBF

FLIGHT INFORMATION

Flight Status: Arrived
Operator: Privately registered:
United States
More flights under this callsign
Pilot: Marcus B. (1617)
Aircraft: SOCATA TBM-900
(TBM9)
More flights by this aircraft type
Origin: KLNK Lincoln Mun
United States
Destination: KLBF North Platte Regl-Bird
United States
More flights between these airports :: More routes between these airports
Route: LNK V138 GRI V6 LBF
File this flight plan on PilotEdge
Remarks: First IFR TBM Flight
Altitude:
(Current/Filed)
20,000ft
Speed:
(Current/Filed)
200kts
Departed: 25-Nov-18 12:16 PM
Arrived: 25-Nov-18 01:09 PM
Distance/Time
Traveled:
179nm/0:53
Distance/Time
To Go:
Arrived

Flight Plot

Page will automatically refresh every two minutes.

Flight plan parsing failed; only flown route is shown


Map Options




Map Legend


Flown Route
Filed Route
Departure Airport
Arrival Airport
Navaid (VOR, NDB)
Fix

Horizontal Profiles

Position Reports

Time Latitude Longitude Heading Altitude Ground
Speed
25-Nov-18 12:11 40.849205 -96.748612 359 1222ft 0kts
25-Nov-18 12:12 40.849205 -96.748612 359 1222ft 0kts
25-Nov-18 12:13 40.849258 -96.748633 335 1222ft 1kts
25-Nov-18 12:14 40.847798 -96.749617 181 1222ft 15kts
25-Nov-18 12:15 40.845544 -96.749879 242 1222ft 0kts
25-Nov-18 12:16 40.845544 -96.749880 242 1222ft 0kts
25-Nov-18 12:17 40.845544 -96.749880 242 1222ft 0kts
25-Nov-18 12:18 40.845881 -96.750849 356 1222ft 22kts
25-Nov-18 12:19 40.869524 -96.751497 356 3276ft 97kts
25-Nov-18 12:20 40.895082 -96.748005 24 6012ft 93kts
25-Nov-18 12:21 40.915954 -96.733555 325 8337ft 123kts
25-Nov-18 12:22 40.911893 -96.791923 271 10360ft 182kts
25-Nov-18 12:23 40.906345 -96.859292 282 12931ft 183kts
25-Nov-18 12:24 40.906893 -96.926025 283 15482ft 182kts
25-Nov-18 12:25 40.912630 -96.988496 284 17933ft 174kts
25-Nov-18 12:26 40.911027 -97.052531 278 20005ft 178kts
25-Nov-18 12:27 40.907675 -97.131796 274 20106ft 248kts
25-Nov-18 12:28 40.903457 -97.227653 273 20101ft 270kts
25-Nov-18 12:29 40.898974 -97.328369 273 20098ft 279kts
25-Nov-18 12:30 40.894318 -97.431071 273 20096ft 281kts
25-Nov-18 12:31 40.889587 -97.533324 273 20096ft 281kts
25-Nov-18 12:32 40.900022 -97.632460 285 20096ft 274kts
25-Nov-18 12:33 40.912430 -97.731176 285 20100ft 274kts
25-Nov-18 12:34 40.924861 -97.830724 285 20107ft 274kts
25-Nov-18 12:35 40.937171 -97.929990 285 20114ft 274kts
25-Nov-18 12:36 40.949386 -98.029236 285 20121ft 274kts
25-Nov-18 12:37 40.961543 -98.128747 285 20129ft 274kts
25-Nov-18 12:38 40.973592 -98.228081 285 20132ft 274kts
25-Nov-18 12:39 40.984319 -98.327504 279 20133ft 276kts
25-Nov-18 12:40 40.988224 -98.429422 279 20132ft 277kts
25-Nov-18 12:41 40.991849 -98.530773 278 20132ft 277kts
25-Nov-18 12:42 40.995395 -98.632615 278 20131ft 277kts
25-Nov-18 12:43 40.998787 -98.732291 278 20133ft 277kts
25-Nov-18 12:44 41.002156 -98.834107 278 20132ft 277kts
25-Nov-18 12:45 41.005438 -98.935867 278 20133ft 277kts
25-Nov-18 12:46 41.008630 -99.037814 278 20133ft 277kts
25-Nov-18 12:47 41.011713 -99.139347 278 20133ft 276kts
25-Nov-18 12:48 41.014708 -99.240983 277 20136ft 276kts
25-Nov-18 12:49 41.017607 -99.342270 277 20140ft 276kts
25-Nov-18 12:50 41.020290 -99.439479 278 17655ft 267kts
25-Nov-18 12:51 41.022851 -99.535393 279 15068ft 249kts
25-Nov-18 12:52 41.024970 -99.622060 275 14017ft 229kts
25-Nov-18 12:53 41.009146 -99.704248 262 13060ft 230kts
25-Nov-18 12:54 41.000732 -99.782893 274 12690ft 207kts
25-Nov-18 12:55 40.995696 -99.869278 272 12557ft 259kts
25-Nov-18 12:56 40.989838 -99.967014 272 12328ft 272kts
25-Nov-18 12:57 40.983767 -100.067685 272 12002ft 277kts
25-Nov-18 12:58 40.977579 -100.168862 272 11217ft 274kts
25-Nov-18 12:59 40.971450 -100.267735 272 10044ft 265kts
25-Nov-18 13:00 40.965603 -100.360737 272 8899ft 244kts
25-Nov-18 13:01 40.950886 -100.445583 259 7730ft 242kts
25-Nov-18 13:02 40.941778 -100.527089 251 6311ft 240kts
25-Nov-18 13:03 40.929452 -100.606914 292 5012ft 212kts
25-Nov-18 13:04 40.939853 -100.671940 290 4983ft 150kts
25-Nov-18 13:05 40.963198 -100.696054 356 5000ft 104kts
25-Nov-18 13:06 40.993351 -100.696405 0 4997ft 107kts
25-Nov-18 13:07 41.021279 -100.695716 0 4742ft 89kts
25-Nov-18 13:08 41.045770 -100.695066 0 4332ft 89kts
25-Nov-18 13:09 41.068413 -100.694509 0 3774ft 68kts
25-Nov-18 13:10 41.088813 -100.693957 0 3583ft 77kts
25-Nov-18 13:11 41.109224 -100.693482 359 3086ft 75kts
25-Nov-18 13:12 41.127600 -100.693030 0 2780ft 37kts
25-Nov-18 13:13 41.131090 -100.693725 271 2780ft 5kts
25-Nov-18 13:14 41.131113 -100.694969 270 2780ft 0kts
25-Nov-18 13:15 41.131478 -100.695630 337 2780ft 5kts
25-Nov-18 13:16 41.131790 -100.695988 264 2780ft 0kts
25-Nov-18 13:17 41.131790 -100.695988 264 2780ft 0kts
25-Nov-18 13:18 41.131790 -100.695988 264 2780ft 0kts
25-Nov-18 13:19 41.131790 -100.695988 264 2780ft 0kts

Navigation Log

Ident Type
Flight plan parsing failed, navigation log unavailable